sensor_id;sensor_type;location;lat;lon;timestamp;temperature;humidity
1534;DHT22;760;48.822;9.304;2023-05-16T04:05:22;10.90;99.90
1534;DHT22;760;48.822;9.304;2023-05-16T04:07:47;10.90;99.90
1534;DHT22;760;48.822;9.304;2023-05-16T04:10:13;10.90;99.90
1534;DHT22;760;48.822;9.304;2023-05-16T04:12:39;11.00;99.90
1534;DHT22;760;48.822;9.304;2023-05-16T04:15:05;11.00;99.90
1534;DHT22;760;48.822;9.304;2023-05-16T04:17:32;11.10;99.90
1534;DHT22;760;48.822;9.304;2023-05-16T04:19:58;11.10;99.90
1534;DHT22;760;48.822;9.304;2023-05-16T04:22:25;11.10;99.90
1534;DHT22;760;48.822;9.304;2023-05-16T04:24:50;11.20;99.90
1534;DHT22;760;48.822;9.304;2023-05-16T04:27:16;11.20;99.90
1534;DHT22;760;48.822;9.304;2023-05-16T04:29:42;11.30;99.90
1534;DHT22;760;48.822;9.304;2023-05-16T04:32:08;11.40;99.90
1534;DHT22;760;48.822;9.304;2023-05-16T04:34:35;11.50;99.90
1534;DHT22;760;48.822;9.304;2023-05-16T04:37:05;11.50;99.90
1534;DHT22;760;48.822;9.304;2023-05-16T04:39:32;11.60;99.90
1534;DHT22;760;48.822;9.304;2023-05-16T04:41:58;11.70;99.90
1534;DHT22;760;48.822;9.304;2023-05-16T04:44:24;11.70;99.90
1534;DHT22;760;48.822;9.304;2023-05-16T04:46:50;11.80;99.90
1534;DHT22;760;48.822;9.304;2023-05-16T04:49:18;11.90;99.90
1534;DHT22;760;48.822;9.304;2023-05-16T04:51:43;11.90;99.90
1534;DHT22;760;48.822;9.304;2023-05-16T04:54:09;11.90;99.90
1534;DHT22;760;48.822;9.304;2023-05-16T04:56:35;11.90;99.90
1534;DHT22;760;48.822;9.304;2023-05-16T04:59:01;11.90;99.90
1534;DHT22;760;48.822;9.304;2023-05-16T05:01:27;11.90;99.90
1534;DHT22;760;48.822;9.304;2023-05-16T05:03:52;11.90;99.90
1534;DHT22;760;48.822;9.304;2023-05-16T05:06:18;11.90;99.90
1534;DHT22;760;48.822;9.304;2023-05-16T05:08:43;11.90;99.90
1534;DHT22;760;48.822;9.304;2023-05-16T05:11:09;12.00;99.90
1534;DHT22;760;48.822;9.304;2023-05-16T05:13:36;12.00;99.90
1534;DHT22;760;48.822;9.304;2023-05-16T05:16:01;12.10;99.90
1534;DHT22;760;48.822;9.304;2023-05-16T05:18:29;12.20;99.90
1534;DHT22;760;48.822;9.304;2023-05-16T05:20:55;12.30;99.90
1534;DHT22;760;48.822;9.304;2023-05-16T05:23:20;12.30;99.90
1534;DHT22;760;48.822;9.304;2023-05-16T05:25:46;12.50;99.90
1534;DHT22;760;48.822;9.304;2023-05-16T05:28:12;12.60;99.90
1534;DHT22;760;48.822;9.304;2023-05-16T05:30:37;12.70;99.90
1534;DHT22;760;48.822;9.304;2023-05-16T05:33:03;12.70;99.90
1534;DHT22;760;48.822;9.304;2023-05-16T05:35:28;12.80;99.90
1534;DHT22;760;48.822;9.304;2023-05-16T05:37:54;12.80;99.90
1534;DHT22;760;48.822;9.304;2023-05-16T05:40:20;12.80;99.90
1534;DHT22;760;48.822;9.304;2023-05-16T05:42:45;12.80;99.90
1534;DHT22;760;48.822;9.304;2023-05-16T05:45:11;12.80;99.90
1534;DHT22;760;48.822;9.304;2023-05-16T05:47:37;12.80;99.90
1534;DHT22;760;48.822;9.304;2023-05-16T05:50:03;12.90;99.90
1534;DHT22;760;48.822;9.304;2023-05-16T05:52:29;12.80;99.90
1534;DHT22;760;48.822;9.304;2023-05-16T05:54:54;12.80;99.90
1534;DHT22;760;48.822;9.304;2023-05-16T05:57:20;12.90;99.90
1534;DHT22;760;48.822;9.304;2023-05-16T05:59:46;12.90;99.90
1534;DHT22;760;48.822;9.304;2023-05-16T06:02:12;12.90;99.90
1534;DHT22;760;48.822;9.304;2023-05-16T06:04:38;12.90;99.90
1534;DHT22;760;48.822;9.304;2023-05-16T06:07:04;12.90;99.90
1534;DHT22;760;48.822;9.304;2023-05-16T06:09:29;12.90;99.90
1534;DHT22;760;48.822;9.304;2023-05-16T06:11:55;13.00;99.90
1534;DHT22;760;48.822;9.304;2023-05-16T06:14:20;13.00;99.90
1534;DHT22;760;48.822;9.304;2023-05-16T06:16:46;13.10;99.90
1534;DHT22;760;48.822;9.304;2023-05-16T06:19:12;13.20;99.90
1534;DHT22;760;48.822;9.304;2023-05-16T06:21:40;13.30;99.90
1534;DHT22;760;48.822;9.304;2023-05-16T06:24:06;13.40;99.90
1534;DHT22;760;48.822;9.304;2023-05-16T06:26:32;13.50;99.90
1534;DHT22;760;48.822;9.304;2023-05-16T06:28:58;13.50;99.90
1534;DHT22;760;48.822;9.304;2023-05-16T06:31:23;13.60;99.90
1534;DHT22;760;48.822;9.304;2023-05-16T06:33:49;13.70;99.90
1534;DHT22;760;48.822;9.304;2023-05-16T06:36:15;13.70;99.90
1534;DHT22;760;48.822;9.304;2023-05-16T06:38:40;13.80;99.90
1534;DHT22;760;48.822;9.304;2023-05-16T06:41:06;13.80;99.90
1534;DHT22;760;48.822;9.304;2023-05-16T06:43:31;13.80;99.90
1534;DHT22;760;48.822;9.304;2023-05-16T06:45:57;13.70;99.90
1534;DHT22;760;48.822;9.304;2023-05-16T06:48:23;13.70;99.90
1534;DHT22;760;48.822;9.304;2023-05-16T06:50:49;13.70;99.90
1534;DHT22;760;48.822;9.304;2023-05-16T06:53:16;13.60;99.90
1534;DHT22;760;48.822;9.304;2023-05-16T06:55:42;13.70;99.90
1534;DHT22;760;48.822;9.304;2023-05-16T06:58:09;13.70;99.90
1534;DHT22;760;48.822;9.304;2023-05-16T07:00:34;13.70;99.90
1534;DHT22;760;48.822;9.304;2023-05-16T07:03:01;13.80;99.90
1534;DHT22;760;48.822;9.304;2023-05-16T07:05:28;13.80;99.90
1534;DHT22;760;48.822;9.304;2023-05-16T07:07:53;13.90;99.90
1534;DHT22;760;48.822;9.304;2023-05-16T07:10:19;13.90;99.90
1534;DHT22;760;48.822;9.304;2023-05-16T07:12:45;13.90;99.90
1534;DHT22;760;48.822;9.304;2023-05-16T07:15:11;14.00;99.90
1534;DHT22;760;48.822;9.304;2023-05-16T07:17:37;14.00;99.90
1534;DHT22;760;48.822;9.304;2023-05-16T07:20:03;14.10;99.90
1534;DHT22;760;48.822;9.304;2023-05-16T07:22:29;14.20;99.90
1534;DHT22;760;48.822;9.304;2023-05-16T07:24:55;14.40;99.90
1534;DHT22;760;48.822;9.304;2023-05-16T07:27:25;14.40;99.90
1534;DHT22;760;48.822;9.304;2023-05-16T07:29:50;14.50;99.90
1534;DHT22;760;48.822;9.304;2023-05-16T07:32:16;14.60;99.90
1534;DHT22;760;48.822;9.304;2023-05-16T07:34:42;14.60;99.90
1534;DHT22;760;48.822;9.304;2023-05-16T07:37:08;14.60;99.90
1534;DHT22;760;48.822;9.304;2023-05-16T07:39:38;14.70;99.90
1534;DHT22;760;48.822;9.304;2023-05-16T07:42:05;14.80;99.90
1534;DHT22;760;48.822;9.304;2023-05-16T07:44:31;14.90;99.90
1534;DHT22;760;48.822;9.304;2023-05-16T07:46:56;14.90;99.90
1534;DHT22;760;48.822;9.304;2023-05-16T07:49:22;14.90;99.90
1534;DHT22;760;48.822;9.304;2023-05-16T07:51:47;14.80;99.90
1534;DHT22;760;48.822;9.304;2023-05-16T07:54:13;14.90;99.90
1534;DHT22;760;48.822;9.304;2023-05-16T07:56:38;14.90;99.90
1534;DHT22;760;48.822;9.304;2023-05-16T07:59:04;14.90;99.90
1534;DHT22;760;48.822;9.304;2023-05-16T08:01:30;14.80;99.90
1534;DHT22;760;48.822;9.304;2023-05-16T08:03:56;14.80;99.90
1534;DHT22;760;48.822;9.304;2023-05-16T08:06:21;14.70;99.90
1534;DHT22;760;48.822;9.304;2023-05-16T08:08:47;14.70;99.90
1534;DHT22;760;48.822;9.304;2023-05-16T08:11:12;14.70;99.90
1534;DHT22;760;48.822;9.304;2023-05-16T08:13:38;14.60;99.90
1534;DHT22;760;48.822;9.304;2023-05-16T08:16:03;14.50;99.90
1534;DHT22;760;48.822;9.304;2023-05-16T08:18:29;14.40;99.90
1534;DHT22;760;48.822;9.304;2023-05-16T08:20:55;14.30;99.90
1534;DHT22;760;48.822;9.304;2023-05-16T08:23:20;14.20;99.90
1534;DHT22;760;48.822;9.304;2023-05-16T08:25:47;14.10;99.90
1534;DHT22;760;48.822;9.304;2023-05-16T08:28:13;14.00;99.90
1534;DHT22;760;48.822;9.304;2023-05-16T08:30:39;13.90;99.90
1534;DHT22;760;48.822;9.304;2023-05-16T08:33:05;13.80;99.90
1534;DHT22;760;48.822;9.304;2023-05-16T08:35:31;13.80;99.90
1534;DHT22;760;48.822;9.304;2023-05-16T08:37:57;13.80;99.90
1534;DHT22;760;48.822;9.304;2023-05-16T08:40:25;13.70;99.90
1534;DHT22;760;48.822;9.304;2023-05-16T08:42:51;13.80;99.90
1534;DHT22;760;48.822;9.304;2023-05-16T08:45:18;13.80;99.90
1534;DHT22;760;48.822;9.304;2023-05-16T08:47:44;13.80;99.90
1534;DHT22;760;48.822;9.304;2023-05-16T08:50:11;13.80;99.90
1534;DHT22;760;48.822;9.304;2023-05-16T08:52:38;13.80;99.90
1534;DHT22;760;48.822;9.304;2023-05-16T08:55:08;13.70;99.90
1534;DHT22;760;48.822;9.304;2023-05-16T08:57:34;13.70;99.90
1534;DHT22;760;48.822;9.304;2023-05-16T09:00:00;13.70;99.90
1534;DHT22;760;48.822;9.304;2023-05-16T09:02:26;13.70;99.90
1534;DHT22;760;48.822;9.304;2023-05-16T09:04:54;13.80;99.90
1534;DHT22;760;48.822;9.304;2023-05-16T09:07:21;13.80;99.90
1534;DHT22;760;48.822;9.304;2023-05-16T09:09:48;13.90;99.90
1534;DHT22;760;48.822;9.304;2023-05-16T09:12:13;13.90;99.90
1534;DHT22;760;48.822;9.304;2023-05-16T09:14:39;13.90;99.90
1534;DHT22;760;48.822;9.304;2023-05-16T09:17:06;13.80;99.90
1534;DHT22;760;48.822;9.304;2023-05-16T09:19:40;13.80;99.90
1534;DHT22;760;48.822;9.304;2023-05-16T09:22:12;13.70;99.90
1534;DHT22;760;48.822;9.304;2023-05-16T09:24:41;13.70;99.90
1534;DHT22;760;48.822;9.304;2023-05-16T09:27:09;13.60;99.90
1534;DHT22;760;48.822;9.304;2023-05-16T09:29:34;13.50;99.90
1534;DHT22;760;48.822;9.304;2023-05-16T09:32:07;13.40;99.90
1534;DHT22;760;48.822;9.304;2023-05-16T09:34:37;13.30;99.90
1534;DHT22;760;48.822;9.304;2023-05-16T09:37:04;13.30;99.90
1534;DHT22;760;48.822;9.304;2023-05-16T09:39:29;13.40;99.90
1534;DHT22;760;48.822;9.304;2023-05-16T09:41:57;13.40;99.90
1534;DHT22;760;48.822;9.304;2023-05-16T09:44:23;13.60;99.90
1534;DHT22;760;48.822;9.304;2023-05-16T09:46:49;13.60;99.90
1534;DHT22;760;48.822;9.304;2023-05-16T09:49:15;13.60;99.90
1534;DHT22;760;48.822;9.304;2023-05-16T09:51:41;13.70;99.90
1534;DHT22;760;48.822;9.304;2023-05-16T09:54:07;13.70;99.90
1534;DHT22;760;48.822;9.304;2023-05-16T09:56:33;13.80;99.90
1534;DHT22;760;48.822;9.304;2023-05-16T09:58:59;13.80;99.90
1534;DHT22;760;48.822;9.304;2023-05-16T10:01:24;13.80;99.90
1534;DHT22;760;48.822;9.304;2023-05-16T10:03:50;13.80;99.90
1534;DHT22;760;48.822;9.304;2023-05-16T10:06:16;13.70;99.90
1534;DHT22;760;48.822;9.304;2023-05-16T10:08:42;13.60;99.90
1534;DHT22;760;48.822;9.304;2023-05-16T10:11:09;13.70;99.90
1534;DHT22;760;48.822;9.304;2023-05-16T10:13:35;13.70;99.90
1534;DHT22;760;48.822;9.304;2023-05-16T10:16:21;13.80;99.90
1534;DHT22;760;48.822;9.304;2023-05-16T10:18:48;13.70;99.90
1534;DHT22;760;48.822;9.304;2023-05-16T10:21:16;13.70;99.90
1534;DHT22;760;48.822;9.304;2023-05-16T10:23:45;13.70;99.90
1534;DHT22;760;48.822;9.304;2023-05-16T10:26:13;13.90;99.90
1534;DHT22;760;48.822;9.304;2023-05-16T10:28:40;13.90;99.90
1534;DHT22;760;48.822;9.304;2023-05-16T10:31:07;13.80;99.90
1534;DHT22;760;48.822;9.304;2023-05-16T10:33:35;13.80;99.90
1534;DHT22;760;48.822;9.304;2023-05-16T10:36:00;13.90;99.90
1534;DHT22;760;48.822;9.304;2023-05-16T10:38:28;13.90;99.90
1534;DHT22;760;48.822;9.304;2023-05-16T10:40:54;14.00;99.90
1534;DHT22;760;48.822;9.304;2023-05-16T10:43:28;14.00;99.90
1534;DHT22;760;48.822;9.304;2023-05-16T10:45:56;14.00;99.90
1534;DHT22;760;48.822;9.304;2023-05-16T10:48:31;14.10;99.90
1534;DHT22;760;48.822;9.304;2023-05-16T10:50:57;14.20;99.90
1534;DHT22;760;48.822;9.304;2023-05-16T10:53:33;14.20;99.90
1534;DHT22;760;48.822;9.304;2023-05-16T11:11:46;14.30;99.90
1534;DHT22;760;48.822;9.304;2023-05-16T11:14:22;14.20;99.90
1534;DHT22;760;48.822;9.304;2023-05-16T11:16:50;14.20;99.90
1534;DHT22;760;48.822;9.304;2023-05-16T11:22:07;14.10;99.90
1534;DHT22;760;48.822;9.304;2023-05-16T11:24:34;14.10;99.90
1534;DHT22;760;48.822;9.304;2023-05-16T11:27:01;14.10;99.90
1534;DHT22;760;48.822;9.304;2023-05-16T11:29:36;14.10;99.90
1534;DHT22;760;48.822;9.304;2023-05-16T11:32:04;14.00;99.90
1534;DHT22;760;48.822;9.304;2023-05-16T11:34:34;14.00;99.90
1534;DHT22;760;48.822;9.304;2023-05-16T11:37:01;13.80;99.90
1534;DHT22;760;48.822;9.304;2023-05-16T11:39:30;13.70;99.90
1534;DHT22;760;48.822;9.304;2023-05-16T11:41:56;13.60;99.90
1534;DHT22;760;48.822;9.304;2023-05-16T11:44:21;13.60;99.90
1534;DHT22;760;48.822;9.304;2023-05-16T11:46:47;13.60;99.90
1534;DHT22;760;48.822;9.304;2023-05-16T11:49:12;13.50;99.90
1534;DHT22;760;48.822;9.304;2023-05-16T11:51:41;13.40;99.90
1534;DHT22;760;48.822;9.304;2023-05-16T11:54:11;13.30;99.90
1534;DHT22;760;48.822;9.304;2023-05-16T11:56:38;13.30;99.90
1534;DHT22;760;48.822;9.304;2023-05-16T11:59:05;13.20;99.90
1534;DHT22;760;48.822;9.304;2023-05-16T12:01:40;13.20;99.90
1534;DHT22;760;48.822;9.304;2023-05-16T12:04:11;13.20;99.90
1534;DHT22;760;48.822;9.304;2023-05-16T12:06:37;13.30;99.90
1534;DHT22;760;48.822;9.304;2023-05-16T12:09:04;13.30;99.90
1534;DHT22;760;48.822;9.304;2023-05-16T12:11:36;13.40;99.90
1534;DHT22;760;48.822;9.304;2023-05-16T12:14:04;13.40;99.90
1534;DHT22;760;48.822;9.304;2023-05-16T12:16:30;13.40;99.90
1534;DHT22;760;48.822;9.304;2023-05-16T12:18:56;13.50;99.90
1534;DHT22;760;48.822;9.304;2023-05-16T12:21:22;13.50;99.90
1534;DHT22;760;48.822;9.304;2023-05-16T12:23:52;13.50;99.90
1534;DHT22;760;48.822;9.304;2023-05-16T12:26:29;13.50;99.90
1534;DHT22;760;48.822;9.304;2023-05-16T12:28:58;13.50;99.90
1534;DHT22;760;48.822;9.304;2023-05-16T12:31:33;13.50;99.90
1534;DHT22;760;48.822;9.304;2023-05-16T12:34:00;13.50;99.90
1534;DHT22;760;48.822;9.304;2023-05-16T12:36:29;13.70;99.90
1534;DHT22;760;48.822;9.304;2023-05-16T12:39:02;13.70;99.90
1534;DHT22;760;48.822;9.304;2023-05-16T12:41:31;13.80;99.90
1534;DHT22;760;48.822;9.304;2023-05-16T12:44:14;13.90;99.90
1534;DHT22;760;48.822;9.304;2023-05-16T12:46:45;14.00;99.90
1534;DHT22;760;48.822;9.304;2023-05-16T12:49:12;14.10;99.90
1534;DHT22;760;48.822;9.304;2023-05-16T12:51:38;14.20;99.90
1534;DHT22;760;48.822;9.304;2023-05-16T12:54:10;14.30;99.90
1534;DHT22;760;48.822;9.304;2023-05-16T12:56:40;14.40;99.90
1534;DHT22;760;48.822;9.304;2023-05-16T12:59:09;14.40;99.90
1534;DHT22;760;48.822;9.304;2023-05-16T13:01:36;14.40;99.90
1534;DHT22;760;48.822;9.304;2023-05-16T13:04:03;14.40;99.90
1534;DHT22;760;48.822;9.304;2023-05-16T13:06:29;14.60;99.90
1534;DHT22;760;48.822;9.304;2023-05-16T13:08:56;14.60;99.90
1534;DHT22;760;48.822;9.304;2023-05-16T13:11:22;14.70;99.90
1534;DHT22;760;48.822;9.304;2023-05-16T13:13:48;14.70;99.90
1534;DHT22;760;48.822;9.304;2023-05-16T13:16:13;14.70;99.90
1534;DHT22;760;48.822;9.304;2023-05-16T13:18:39;14.60;99.90
1534;DHT22;760;48.822;9.304;2023-05-16T13:21:05;14.50;99.90
1534;DHT22;760;48.822;9.304;2023-05-16T13:23:31;14.40;99.90
1534;DHT22;760;48.822;9.304;2023-05-16T13:25:57;14.30;99.90
1534;DHT22;760;48.822;9.304;2023-05-16T13:28:23;14.20;99.90
1534;DHT22;760;48.822;9.304;2023-05-16T13:30:49;14.20;99.90
1534;DHT22;760;48.822;9.304;2023-05-16T13:33:17;14.20;99.90
1534;DHT22;760;48.822;9.304;2023-05-16T13:35:43;14.40;99.90
1534;DHT22;760;48.822;9.304;2023-05-16T13:38:09;14.50;99.90
1534;DHT22;760;48.822;9.304;2023-05-16T13:40:34;14.50;99.90
1534;DHT22;760;48.822;9.304;2023-05-16T13:43:00;14.50;99.90
1534;DHT22;760;48.822;9.304;2023-05-16T13:45:26;14.50;99.90
1534;DHT22;760;48.822;9.304;2023-05-16T13:47:52;14.40;99.90
1534;DHT22;760;48.822;9.304;2023-05-16T13:50:18;14.30;99.90
1534;DHT22;760;48.822;9.304;2023-05-16T13:52:43;14.20;99.90
1534;DHT22;760;48.822;9.304;2023-05-16T13:55:09;14.10;99.90
1534;DHT22;760;48.822;9.304;2023-05-16T13:57:35;13.90;99.90
1534;DHT22;760;48.822;9.304;2023-05-16T14:00:01;13.90;99.90
1534;DHT22;760;48.822;9.304;2023-05-16T14:02:30;13.80;99.90
1534;DHT22;760;48.822;9.304;2023-05-16T14:04:56;13.80;99.90
1534;DHT22;760;48.822;9.304;2023-05-16T14:07:21;13.70;99.90
1534;DHT22;760;48.822;9.304;2023-05-16T14:09:47;13.60;99.90
1534;DHT22;760;48.822;9.304;2023-05-16T14:12:12;13.60;99.90
1534;DHT22;760;48.822;9.304;2023-05-16T14:14:38;13.50;99.90
1534;DHT22;760;48.822;9.304;2023-05-16T14:17:04;13.50;99.90
1534;DHT22;760;48.822;9.304;2023-05-16T14:19:30;13.60;99.90
1534;DHT22;760;48.822;9.304;2023-05-16T14:21:57;13.70;99.90
1534;DHT22;760;48.822;9.304;2023-05-16T14:24:22;13.70;99.90
1534;DHT22;760;48.822;9.304;2023-05-16T14:26:48;13.80;99.90
1534;DHT22;760;48.822;9.304;2023-05-16T14:29:14;13.80;99.90
1534;DHT22;760;48.822;9.304;2023-05-16T14:31:39;13.70;99.90
1534;DHT22;760;48.822;9.304;2023-05-16T14:34:05;13.60;99.90
1534;DHT22;760;48.822;9.304;2023-05-16T14:36:31;13.50;99.90
1534;DHT22;760;48.822;9.304;2023-05-16T14:38:57;13.50;99.90
1534;DHT22;760;48.822;9.304;2023-05-16T14:41:23;13.60;99.90
1534;DHT22;760;48.822;9.304;2023-05-16T14:43:49;13.80;99.90
1534;DHT22;760;48.822;9.304;2023-05-16T14:46:14;13.90;99.90
1534;DHT22;760;48.822;9.304;2023-05-16T14:48:40;14.00;99.90
1534;DHT22;760;48.822;9.304;2023-05-16T14:51:06;14.20;99.90
1534;DHT22;760;48.822;9.304;2023-05-16T14:53:31;14.30;99.90
1534;DHT22;760;48.822;9.304;2023-05-16T14:55:57;14.40;99.90
1534;DHT22;760;48.822;9.304;2023-05-16T14:58:23;14.40;99.90
1534;DHT22;760;48.822;9.304;2023-05-16T15:00:49;14.40;99.90
1534;DHT22;760;48.822;9.304;2023-05-16T15:03:16;14.30;99.90
1534;DHT22;760;48.822;9.304;2023-05-16T15:05:42;14.20;99.90
1534;DHT22;760;48.822;9.304;2023-05-16T15:08:08;14.00;99.90
1534;DHT22;760;48.822;9.304;2023-05-16T15:10:33;13.90;99.90
1534;DHT22;760;48.822;9.304;2023-05-16T15:12:59;13.90;99.90
1534;DHT22;760;48.822;9.304;2023-05-16T15:15:24;13.70;99.90
1534;DHT22;760;48.822;9.304;2023-05-16T15:17:50;13.70;99.90
1534;DHT22;760;48.822;9.304;2023-05-16T15:20:16;13.60;99.90
1534;DHT22;760;48.822;9.304;2023-05-16T15:22:41;13.50;99.90
1534;DHT22;760;48.822;9.304;2023-05-16T15:25:08;13.40;99.90
1534;DHT22;760;48.822;9.304;2023-05-16T15:27:33;13.50;99.90
1534;DHT22;760;48.822;9.304;2023-05-16T15:30:00;13.40;99.90
1534;DHT22;760;48.822;9.304;2023-05-16T15:32:26;13.40;99.90
1534;DHT22;760;48.822;9.304;2023-05-16T15:34:52;13.50;99.90
1534;DHT22;760;48.822;9.304;2023-05-16T15:37:17;13.50;99.90
1534;DHT22;760;48.822;9.304;2023-05-16T15:39:43;13.60;99.90
1534;DHT22;760;48.822;9.304;2023-05-16T15:42:09;13.60;99.90
1534;DHT22;760;48.822;9.304;2023-05-16T15:44:35;13.70;99.90
1534;DHT22;760;48.822;9.304;2023-05-16T15:47:01;13.70;99.90
1534;DHT22;760;48.822;9.304;2023-05-16T15:49:26;13.70;99.90
1534;DHT22;760;48.822;9.304;2023-05-16T15:51:52;13.70;99.90
1534;DHT22;760;48.822;9.304;2023-05-16T15:54:19;13.70;99.90
1534;DHT22;760;48.822;9.304;2023-05-16T15:56:44;13.70;99.90
1534;DHT22;760;48.822;9.304;2023-05-16T15:59:10;13.70;99.90
1534;DHT22;760;48.822;9.304;2023-05-16T16:01:36;13.70;99.90
1534;DHT22;760;48.822;9.304;2023-05-16T16:04:01;13.70;99.90
1534;DHT22;760;48.822;9.304;2023-05-16T16:06:27;13.70;99.90
1534;DHT22;760;48.822;9.304;2023-05-16T16:08:52;13.70;99.90
1534;DHT22;760;48.822;9.304;2023-05-16T16:11:19;13.80;99.90
1534;DHT22;760;48.822;9.304;2023-05-16T16:13:49;13.80;99.90
1534;DHT22;760;48.822;9.304;2023-05-16T16:16:15;13.90;99.90
1534;DHT22;760;48.822;9.304;2023-05-16T16:18:41;13.90;99.90
1534;DHT22;760;48.822;9.304;2023-05-16T16:21:10;13.90;99.90
1534;DHT22;760;48.822;9.304;2023-05-16T16:23:37;13.80;99.90
1534;DHT22;760;48.822;9.304;2023-05-16T16:26:04;13.80;99.90
1534;DHT22;760;48.822;9.304;2023-05-16T16:28:30;13.80;99.90
1534;DHT22;760;48.822;9.304;2023-05-16T16:30:56;13.80;99.90
1534;DHT22;760;48.822;9.304;2023-05-16T16:33:21;13.80;99.90
1534;DHT22;760;48.822;9.304;2023-05-16T16:35:47;13.80;99.90
1534;DHT22;760;48.822;9.304;2023-05-16T16:38:12;13.70;99.90
1534;DHT22;760;48.822;9.304;2023-05-16T16:40:38;13.80;99.90
1534;DHT22;760;48.822;9.304;2023-05-16T16:43:05;13.70;99.90
1534;DHT22;760;48.822;9.304;2023-05-16T16:45:31;13.70;99.90
1534;DHT22;760;48.822;9.304;2023-05-16T16:47:57;13.70;99.90
1534;DHT22;760;48.822;9.304;2023-05-16T16:50:22;13.70;99.90
1534;DHT22;760;48.822;9.304;2023-05-16T16:52:48;13.60;99.90
1534;DHT22;760;48.822;9.304;2023-05-16T16:55:14;13.60;99.90
1534;DHT22;760;48.822;9.304;2023-05-16T16:57:42;13.60;99.90
1534;DHT22;760;48.822;9.304;2023-05-16T17:00:09;13.60;99.90
1534;DHT22;760;48.822;9.304;2023-05-16T17:02:35;13.60;99.90
1534;DHT22;760;48.822;9.304;2023-05-16T17:05:01;13.60;99.90
1534;DHT22;760;48.822;9.304;2023-05-16T17:07:29;13.60;99.90
1534;DHT22;760;48.822;9.304;2023-05-16T17:09:55;13.50;99.90
1534;DHT22;760;48.822;9.304;2023-05-16T17:12:20;13.50;99.90
1534;DHT22;760;48.822;9.304;2023-05-16T17:14:49;13.50;99.90
1534;DHT22;760;48.822;9.304;2023-05-16T17:17:17;13.50;99.90
1534;DHT22;760;48.822;9.304;2023-05-16T17:19:45;13.50;99.90
1534;DHT22;760;48.822;9.304;2023-05-16T17:22:11;13.50;99.90
1534;DHT22;760;48.822;9.304;2023-05-16T17:24:37;13.60;99.90
1534;DHT22;760;48.822;9.304;2023-05-16T17:27:03;13.60;99.90
1534;DHT22;760;48.822;9.304;2023-05-16T17:29:29;13.60;99.90
1534;DHT22;760;48.822;9.304;2023-05-16T17:31:55;13.70;99.90
1534;DHT22;760;48.822;9.304;2023-05-16T17:34:21;13.70;99.90
1534;DHT22;760;48.822;9.304;2023-05-16T17:36:47;13.70;99.90
1534;DHT22;760;48.822;9.304;2023-05-16T17:39:14;13.80;99.90
1534;DHT22;760;48.822;9.304;2023-05-16T17:41:39;13.90;99.90
1534;DHT22;760;48.822;9.304;2023-05-16T17:44:05;13.80;99.90
1534;DHT22;760;48.822;9.304;2023-05-16T17:46:32;13.90;99.90
1534;DHT22;760;48.822;9.304;2023-05-16T17:48:58;13.90;99.90
1534;DHT22;760;48.822;9.304;2023-05-16T17:51:24;13.90;99.90
1534;DHT22;760;48.822;9.304;2023-05-16T17:53:50;13.80;99.90
1534;DHT22;760;48.822;9.304;2023-05-16T17:56:15;13.80;99.50
1534;DHT22;760;48.822;9.304;2023-05-16T17:58:41;13.80;99.80
1534;DHT22;760;48.822;9.304;2023-05-16T18:01:07;13.70;99.90
1534;DHT22;760;48.822;9.304;2023-05-16T18:03:33;13.70;99.90
1534;DHT22;760;48.822;9.304;2023-05-16T18:05:59;13.70;99.90
1534;DHT22;760;48.822;9.304;2023-05-16T18:08:25;13.60;99.90
1534;DHT22;760;48.822;9.304;2023-05-16T18:10:50;13.60;99.90
1534;DHT22;760;48.822;9.304;2023-05-16T18:13:16;13.50;99.90
1534;DHT22;760;48.822;9.304;2023-05-16T18:15:42;13.50;99.80
1534;DHT22;760;48.822;9.304;2023-05-16T18:18:08;13.50;99.30
1534;DHT22;760;48.822;9.304;2023-05-16T18:20:34;13.40;99.00
1534;DHT22;760;48.822;9.304;2023-05-16T18:22:59;13.40;98.90
1534;DHT22;760;48.822;9.304;2023-05-16T18:25:26;13.40;98.60
1534;DHT22;760;48.822;9.304;2023-05-16T18:27:52;13.40;98.40
1534;DHT22;760;48.822;9.304;2023-05-16T18:30:17;13.40;98.60
1534;DHT22;760;48.822;9.304;2023-05-16T18:32:43;13.40;98.20
1534;DHT22;760;48.822;9.304;2023-05-16T18:35:09;13.30;98.00
1534;DHT22;760;48.822;9.304;2023-05-16T18:37:35;13.30;98.00
1534;DHT22;760;48.822;9.304;2023-05-16T18:40:01;13.30;98.00
1534;DHT22;760;48.822;9.304;2023-05-16T18:42:26;13.20;98.00
1534;DHT22;760;48.822;9.304;2023-05-16T18:44:52;13.20;97.90
1534;DHT22;760;48.822;9.304;2023-05-16T18:47:18;13.20;97.40
1534;DHT22;760;48.822;9.304;2023-05-16T18:49:45;13.10;97.50
1534;DHT22;760;48.822;9.304;2023-05-16T18:52:10;13.10;97.50
1534;DHT22;760;48.822;9.304;2023-05-16T18:54:37;13.00;97.50
1534;DHT22;760;48.822;9.304;2023-05-16T18:57:06;13.00;97.30
1534;DHT22;760;48.822;9.304;2023-05-16T18:59:32;13.00;97.40
1534;DHT22;760;48.822;9.304;2023-05-16T19:01:58;12.90;97.20
1534;DHT22;760;48.822;9.304;2023-05-16T19:04:24;12.90;97.40
1534;DHT22;760;48.822;9.304;2023-05-16T19:06:49;12.90;97.10
1534;DHT22;760;48.822;9.304;2023-05-16T19:09:16;12.90;97.10
1534;DHT22;760;48.822;9.304;2023-05-16T19:11:41;12.80;97.00
1534;DHT22;760;48.822;9.304;2023-05-16T19:14:07;12.70;97.10
1534;DHT22;760;48.822;9.304;2023-05-16T19:16:33;12.60;97.10
1534;DHT22;760;48.822;9.304;2023-05-16T19:18:59;12.60;97.20
1534;DHT22;760;48.822;9.304;2023-05-16T19:21:25;12.50;97.50
1534;DHT22;760;48.822;9.304;2023-05-16T19:23:51;12.40;97.40
1534;DHT22;760;48.822;9.304;2023-05-16T19:26:17;12.30;97.50
1534;DHT22;760;48.822;9.304;2023-05-16T19:28:42;12.20;97.70
1534;DHT22;760;48.822;9.304;2023-05-16T19:31:11;12.10;97.90
1534;DHT22;760;48.822;9.304;2023-05-16T19:33:37;12.00;98.20
1534;DHT22;760;48.822;9.304;2023-05-16T19:36:06;11.90;98.30
1534;DHT22;760;48.822;9.304;2023-05-16T19:38:31;11.80;98.30
1534;DHT22;760;48.822;9.304;2023-05-16T19:40:57;11.70;98.60
1534;DHT22;760;48.822;9.304;2023-05-16T19:43:24;11.70;98.70
1534;DHT22;760;48.822;9.304;2023-05-16T19:45:50;11.60;98.70
1534;DHT22;760;48.822;9.304;2023-05-16T19:48:15;11.50;99.00
1534;DHT22;760;48.822;9.304;2023-05-16T19:50:41;11.50;99.00
1534;DHT22;760;48.822;9.304;2023-05-16T19:53:07;11.40;99.00
1534;DHT22;760;48.822;9.304;2023-05-16T19:55:33;11.40;99.20
1534;DHT22;760;48.822;9.304;2023-05-16T19:58:00;11.30;99.40
1534;DHT22;760;48.822;9.304;2023-05-16T20:00:25;11.30;99.50
1534;DHT22;760;48.822;9.304;2023-05-16T20:02:51;11.30;99.50
1534;DHT22;760;48.822;9.304;2023-05-16T20:05:17;11.20;99.50
1534;DHT22;760;48.822;9.304;2023-05-16T20:07:50;11.20;99.60
1534;DHT22;760;48.822;9.304;2023-05-16T20:10:17;11.20;99.70
1534;DHT22;760;48.822;9.304;2023-05-16T20:12:43;11.20;99.50
1534;DHT22;760;48.822;9.304;2023-05-16T20:15:09;11.20;99.70
1534;DHT22;760;48.822;9.304;2023-05-16T20:17:36;11.20;99.80
1534;DHT22;760;48.822;9.304;2023-05-16T20:20:03;11.10;99.70
1534;DHT22;760;48.822;9.304;2023-05-16T20:22:29;11.10;99.60
1534;DHT22;760;48.822;9.304;2023-05-16T20:24:55;11.10;99.60
1534;DHT22;760;48.822;9.304;2023-05-16T20:27:20;11.10;99.60
1534;DHT22;760;48.822;9.304;2023-05-16T20:29:46;11.10;99.70
1534;DHT22;760;48.822;9.304;2023-05-16T20:32:18;11.20;99.70
1534;DHT22;760;48.822;9.304;2023-05-16T20:34:44;11.10;99.80